Time;durP1;ratioP1;P1;durP2;ratioP2;P2;SDS_P1;SDS_P2;PMS_P1;PMS_P2;Temp;Humidity;BMP_temperature;BMP_pressure;BME280_temperature;BME280_humidity;BME280_pressure;Samples;Min_cycle;Max_cycle;Signal;HPM_P1;HPM_P2
2021/10/02 00:45:40;;;;;;;7.85;4.80;;;;;;;15.21;64.27;99476.63;6096524;23;20106;-79
2021/10/02 00:48:13;;;;;;;6.15;4.47;;;;;;;15.21;64.70;99478.41;6097150;23;20026;-79
2021/10/02 00:50:39;;;;;;;6.07;4.63;;;;;;;15.24;63.23;99479.03;6097495;23;20462;-79
2021/10/02 00:53:06;;;;;;;7.25;4.68;;;;;;;15.26;63.51;99475.41;6096947;23;20030;-79
2021/10/02 00:55:33;;;;;;;6.32;5.28;;;;;;;15.26;63.71;99480.72;6096689;23;20027;-79
2021/10/02 00:58:02;;;;;;;6.40;4.78;;;;;;;15.25;64.06;99474.56;6097037;23;20065;-79
2021/10/02 01:00:29;;;;;;;7.28;5.25;;;;;;;15.27;63.57;99475.28;6096883;23;20033;-80
2021/10/02 01:03:20;;;;;;;7.13;5.25;;;;;;;15.26;65.00;99475.41;6097428;23;20350;-80
2021/10/02 01:05:58;;;;;;;7.45;5.38;;;;;;;15.30;64.72;99474.19;6096933;23;20046;-79
2021/10/02 01:08:42;;;;;;;7.47;5.55;;;;;;;15.32;65.10;99473.09;6096915;23;20065;-79
2021/10/02 01:11:26;;;;;;;6.47;5.28;;;;;;;15.32;65.01;99466.94;6097074;23;20466;-79
2021/10/02 01:14:08;;;;;;;7.57;5.55;;;;;;;15.33;64.96;99460.69;6096640;23;20065;-79
2021/10/02 01:16:40;;;;;;;6.60;5.57;;;;;;;15.35;64.69;99464.91;6098738;23;20030;-79
2021/10/02 01:19:29;;;;;;;8.10;6.00;;;;;;;15.34;65.46;99460.56;6096591;23;20042;-79
2021/10/02 01:22:34;;;;;;;8.43;6.15;;;;;;;15.35;65.65;99458.75;6096900;23;20022;-79
2021/10/02 01:25:17;;;;;;;9.32;5.60;;;;;;;15.36;65.21;99457.75;6096551;23;20027;-79
2021/10/02 01:27:59;;;;;;;8.95;5.93;;;;;;;15.35;65.20;99462.25;6096793;23;20374;-79
2021/10/02 01:47:25;;;;;;;7.88;6.03;;;;;;;15.42;64.12;99438.72;6098321;23;20030;-80
2021/10/02 01:49:57;;;;;;;7.78;6.35;;;;;;;15.39;65.60;99449.56;6096823;23;20023;-79
2021/10/02 01:52:31;;;;;;;10.30;6.60;;;;;;;15.41;65.39;99446.78;6096594;23;20117;-79
2021/10/02 01:55:00;;;;;;;9.88;6.50;;;;;;;15.42;64.53;99443.16;6096440;23;20387;-80
2021/10/02 01:57:34;;;;;;;7.20;6.22;;;;;;;15.41;65.17;99439.69;6096240;23;20109;-79
2021/10/02 02:00:07;;;;;;;9.25;6.53;;;;;;;15.41;65.27;99433.53;6096331;23;20510;-80
2021/10/02 02:02:37;;;;;;;6.90;6.30;;;;;;;15.43;64.76;99436.88;6096849;23;20498;-79
2021/10/02 02:05:07;;;;;;;8.57;7.07;;;;;;;15.43;65.39;99431.56;6095921;23;20026;-80
2021/10/02 02:07:49;;;;;;;9.70;6.88;;;;;;;15.41;66.37;99421.13;6097702;23;20030;-79
2021/10/02 02:10:18;;;;;;;10.18;7.15;;;;;;;15.45;65.07;99427.84;6096446;23;20033;-79
2021/10/02 02:12:54;;;;;;;8.65;6.57;;;;;;;15.43;66.19;99427.13;6096340;23;20062;-79
2021/10/02 02:15:22;;;;;;;7.53;6.82;;;;;;;15.47;65.10;99423.25;6096070;23;20062;-79
2021/10/02 02:18:03;;;;;;;7.53;6.82;;;;;;;15.43;66.34;99420.97;6095625;23;20049;-79
2021/10/02 02:20:59;;;;;;;8.30;6.95;;;;;;;15.45;66.10;99419.03;6097396;23;20054;-79
2021/10/02 02:23:27;;;;;;;9.95;6.75;;;;;;;15.48;65.15;99419.63;6094190;23;20517;-80
2021/10/02 02:25:55;;;;;;;7.43;6.53;;;;;;;15.49;65.25;99426.63;6095933;23;20812;-79
2021/10/02 02:28:26;;;;;;;8.98;6.45;;;;;;;15.48;65.98;99424.09;6096071;23;20105;-80
2021/10/02 02:30:53;;;;;;;7.78;7.07;;;;;;;15.49;65.16;99413.38;6095963;23;20022;-80
2021/10/02 02:33:21;;;;;;;8.13;7.30;;;;;;;15.48;65.41;99422.28;6096043;23;20101;-79
2021/10/02 02:35:49;;;;;;;9.02;7.53;;;;;;;15.50;65.37;99415.03;6095899;23;20033;-79
2021/10/02 02:38:20;;;;;;;9.40;8.23;;;;;;;15.49;66.33;99418.69;6096335;23;20468;-79
2021/10/02 02:40:47;;;;;;;8.55;7.63;;;;;;;15.53;65.38;99421.06;6097199;23;20472;-79
2021/10/02 02:43:14;;;;;;;9.00;7.43;;;;;;;15.53;65.38;99415.75;6097311;23;20326;-79
2021/10/02 02:45:46;;;;;;;8.15;7.22;;;;;;;15.53;65.89;99418.41;6096989;23;20097;-79
2021/10/02 02:48:18;;;;;;;8.35;7.35;;;;;;;15.54;65.70;99418.28;6098861;23;20160;-79
2021/10/02 02:51:08;;;;;;;11.27;7.05;;;;;;;15.50;66.41;99409.75;6097115;23;20033;-79
2021/10/02 02:54:11;;;;;;;7.70;7.00;;;;;;;15.53;66.52;99413.09;6096827;23;20030;-79
2021/10/02 02:56:45;;;;;;;7.70;7.00;;;;;;;15.55;66.29;99412.00;6096444;23;20018;-79
2021/10/02 02:59:34;;;;;;;7.07;6.38;;;;;;;15.53;66.47;99413.09;6096561;23;20050;-79
2021/10/02 03:02:03;;;;;;;8.15;7.20;;;;;;;15.54;65.36;99407.66;6098423;23;20505;-79
2021/10/02 03:04:34;;;;;;;8.13;7.30;;;;;;;15.52;65.98;99412.28;6096345;23;20026;-79
2021/10/02 03:07:03;;;;;;;9.93;7.68;;;;;;;15.53;65.63;99413.09;6096685;23;20089;-79
2021/10/02 03:09:35;;;;;;;8.45;7.65;;;;;;;15.52;66.31;99414.06;6096459;23;20351;-79
2021/10/02 03:12:03;;;;;;;9.05;8.15;;;;;;;15.52;65.76;99411.41;6096929;23;20078;-79
2021/10/02 03:14:31;;;;;;;8.55;7.75;;;;;;;15.53;65.84;99410.44;6096591;23;20022;-79
2021/10/02 03:17:07;;;;;;;10.00;9.10;;;;;;;15.49;67.51;99405.41;6098285;23;20037;-79
2021/10/02 03:19:37;;;;;;;8.32;7.53;;;;;;;15.50;66.31;99412.41;6096296;23;20101;-79
2021/10/02 03:22:07;;;;;;;9.18;8.27;;;;;;;15.50;66.33;99407.09;6096300;23;20090;-79
2021/10/02 03:24:38;;;;;;;9.32;8.43;;;;;;;15.47;66.67;99402.03;6096559;23;20057;-79
2021/10/02 03:27:09;;;;;;;9.75;8.85;;;;;;;15.46;67.12;99403.00;6096153;23;20109;-79
2021/10/02 03:29:37;;;;;;;9.57;8.55;;;;;;;15.48;65.95;99408.19;6096523;23;20025;-79
2021/10/02 03:32:07;;;;;;;9.82;8.85;;;;;;;15.47;66.25;99406.47;6096096;23;20022;-79
2021/10/02 03:34:38;;;;;;;10.57;9.48;;;;;;;15.45;67.10;99403.13;6096055;23;20050;-79
2021/10/02 03:37:05;;;;;;;10.00;9.02;;;;;;;15.45;66.34;99405.78;6097213;23;20030;-79
2021/10/02 03:39:33;;;;;;;10.50;8.77;;;;;;;15.44;66.47;99404.94;6096065;23;20026;-79
2021/10/02 03:42:08;;;;;;;11.07;9.98;;;;;;;15.42;67.34;99400.72;6096601;23;20101;-79
2021/10/02 03:44:47;;;;;;;10.43;9.38;;;;;;;15.40;67.58;99406.16;6096358;23;20030;-79
2021/10/02 03:47:16;;;;;;;11.18;9.13;;;;;;;15.44;66.84;99409.41;6096704;23;20788;-79
2021/10/02 03:49:45;;;;;;;11.13;10.05;;;;;;;15.45;66.63;99406.63;6096223;23;20026;-79
2021/10/02 03:52:13;;;;;;;11.25;9.05;;;;;;;15.47;66.56;99415.28;6096422;23;20399;-79
2021/10/02 03:54:42;;;;;;;10.73;9.65;;;;;;;15.48;66.72;99411.66;6096160;23;20062;-79
2021/10/02 03:57:09;;;;;;;11.63;10.15;;;;;;;15.50;66.45;99399.13;6096349;23;20089;-79
2021/10/02 03:59:36;;;;;;;10.82;9.57;;;;;;;15.53;66.45;99408.63;6098073;23;20057;-79
2021/10/02 04:02:03;;;;;;;11.43;10.35;;;;;;;15.54;66.48;99401.50;6096392;23;20359;-79
2021/10/02 04:04:30;;;;;;;11.05;9.13;;;;;;;15.54;66.33;99397.06;6096224;23;20420;-79
2021/10/02 04:06:59;;;;;;;10.70;9.70;;;;;;;15.54;67.06;99396.19;6095832;23;20018;-79
2021/10/02 04:09:27;;;;;;;10.80;9.70;;;;;;;15.55;66.52;99388.13;6096304;23;20033;-79
2021/10/02 04:11:54;;;;;;;11.40;10.30;;;;;;;15.56;66.57;99387.16;6096311;23;20026;-79
2021/10/02 04:14:22;;;;;;;13.20;10.50;;;;;;;15.55;66.57;99385.47;6095876;23;20030;-79
2021/10/02 04:16:49;;;;;;;11.45;10.25;;;;;;;15.55;66.58;99382.00;6095872;23;20105;-79
2021/10/02 04:19:15;;;;;;;11.23;10.02;;;;;;;15.54;66.61;99380.28;6095876;23;20099;-79
2021/10/02 04:21:43;;;;;;;11.25;10.00;;;;;;;15.54;66.66;99377.63;6095640;23;20019;-79
2021/10/02 04:24:10;;;;;;;13.32;11.13;;;;;;;15.52;66.79;99372.47;6095635;23;20105;-79
2021/10/02 04:26:45;;;;;;;12.70;11.40;;;;;;;15.48;67.87;99366.56;6096221;23;20097;-79
2021/10/02 04:29:12;;;;;;;13.93;10.25;;;;;;;15.50;66.86;99359.34;6095571;23;20022;-79
2021/10/02 04:31:39;;;;;;;12.50;11.30;;;;;;;15.50;66.84;99369.94;6096301;23;20093;-79
2021/10/02 04:34:07;;;;;;;12.73;11.00;;;;;;;15.50;67.34;99377.06;6095750;23;20031;-79
2021/10/02 04:36:34;;;;;;;11.00;9.82;;;;;;;15.53;66.82;99376.81;6095947;23;20097;-79
2021/10/02 04:39:02;;;;;;;14.02;11.07;;;;;;;15.54;66.95;99380.28;6095692;23;20101;-79
2021/10/02 04:41:29;;;;;;;15.35;12.35;;;;;;;15.55;66.86;99382.00;6097688;23;20084;-79
2021/10/02 04:43:57;;;;;;;13.57;12.20;;;;;;;15.56;67.05;99391.63;6095662;23;20030;-79
2021/10/02 04:46:23;;;;;;;14.95;11.55;;;;;;;15.58;66.88;99384.38;6096404;23;20485;-79
2021/10/02 04:48:52;;;;;;;13.05;11.57;;;;;;;15.57;67.13;99380.88;6095899;23;20027;-79
2021/10/02 04:51:19;;;;;;;13.82;11.48;;;;;;;15.58;66.84;99379.06;6095990;23;20073;-79
2021/10/02 04:53:46;;;;;;;13.15;11.60;;;;;;;15.58;66.86;99382.56;6097353;23;20037;-79
2021/10/02 04:56:17;;;;;;;15.00;12.20;;;;;;;15.57;67.58;99388.00;6095721;23;20101;-79
2021/10/02 04:58:44;;;;;;;14.02;12.15;;;;;;;15.58;66.86;99387.88;6096288;23;20525;-79
2021/10/02 05:01:12;;;;;;;14.68;12.02;;;;;;;15.58;67.05;99381.72;6096067;23;20454;-79
2021/10/02 05:03:42;;;;;;;15.85;12.85;;;;;;;15.56;67.66;99388.97;6096049;23;20082;-79
2021/10/02 05:06:09;;;;;;;14.05;11.60;;;;;;;15.57;67.09;99382.69;6095771;23;20081;-79
2021/10/02 05:08:48;;;;;;;16.15;13.18;;;;;;;15.53;68.32;99390.06;6095682;23;20065;-79
2021/10/02 05:11:15;;;;;;;13.38;11.98;;;;;;;15.58;67.04;99402.94;6095962;23;20061;-79
2021/10/02 05:13:42;;;;;;;13.88;12.27;;;;;;;15.58;67.34;99401.13;6096136;23;20466;-79
2021/10/02 05:16:12;;;;;;;14.75;12.98;;;;;;;15.58;67.73;99417.06;6096501;23;20057;-79
2021/10/02 05:18:44;;;;;;;16.23;14.30;;;;;;;15.58;68.06;99406.44;6096112;23;20064;-79
2021/10/02 05:21:11;;;;;;;15.88;13.38;;;;;;;15.61;67.16;99405.34;6095427;23;20121;-79
2021/10/02 05:23:37;;;;;;;15.43;13.65;;;;;;;15.61;67.30;99405.34;6095857;23;20026;-79
2021/10/02 05:26:04;;;;;;;17.23;14.98;;;;;;;15.60;67.38;99409.81;6096079;23;20056;-79
2021/10/02 05:28:32;;;;;;;18.67;14.25;;;;;;;15.60;67.49;99414.28;6095683;23;20058;-79
2021/10/02 05:30:59;;;;;;;17.15;14.70;;;;;;;15.59;67.38;99405.47;6096072;23;20050;-79
2021/10/02 05:33:28;;;;;;;19.52;14.98;;;;;;;15.57;67.88;99407.41;6097041;23;20033;-79
2021/10/02 05:35:54;;;;;;;16.65;15.02;;;;;;;15.58;67.38;99413.53;6097300;23;20105;-79
2021/10/02 05:38:23;;;;;;;16.50;14.77;;;;;;;15.58;67.99;99410.88;6097497;23;20022;-79
2021/10/02 05:40:50;;;;;;;19.73;15.98;;;;;;;15.58;67.70;99411.75;6099408;23;20101;-79
2021/10/02 05:43:19;;;;;;;19.13;14.52;;;;;;;15.57;68.10;99422.47;6097437;23;20029;-79
2021/10/02 05:45:46;;;;;;;15.15;13.55;;;;;;;15.60;67.53;99424.88;6097379;23;20476;-79
2021/10/02 05:48:28;;;;;;;15.55;13.95;;;;;;;15.57;68.63;99428.63;6097829;23;20027;-79
2021/10/02 05:50:55;;;;;;;16.00;14.35;;;;;;;15.61;67.76;99435.38;6097614;23;20029;-79
2021/10/02 05:53:22;;;;;;;15.55;13.93;;;;;;;15.62;67.58;99420.28;6097871;23;20029;-80
2021/10/02 05:55:51;;;;;;;17.92;14.43;;;;;;;15.62;68.00;99437.03;6097059;23;20037;-80
2021/10/02 05:58:17;;;;;;;17.83;15.68;;;;;;;15.64;67.61;99431.63;6099193;23;20105;-80
2021/10/02 06:00:48;;;;;;;20.88;15.02;;;;;;;15.63;68.31;99421.97;6101116;23;20022;-82
2021/10/02 06:03:15;;;;;;;16.92;14.15;;;;;;;15.66;67.63;99416.41;6097813;23;20034;-82
2021/10/02 06:05:42;;;;;;;16.02;13.60;;;;;;;15.67;67.69;99418.09;6097282;23;20030;-82
2021/10/02 06:08:31;;;;;;;15.93;14.15;;;;;;;15.64;68.59;99397.13;6097358;23;20037;-83
2021/10/02 06:10:57;;;;;;;15.50;13.63;;;;;;;15.70;67.55;99404.56;6097513;23;20401;-82
2021/10/02 06:13:40;;;;;;;16.83;14.85;;;;;;;15.67;68.70;99396.88;6097536;23;20022;-82
2021/10/02 06:16:07;;;;;;;17.15;14.88;;;;;;;15.72;67.42;99399.97;6097566;23;20026;-82
2021/10/02 06:18:49;;;;;;;17.85;13.57;;;;;;;15.70;68.57;99404.56;6098816;23;20476;-82
2021/10/02 06:21:15;;;;;;;13.98;12.63;;;;;;;15.74;67.38;99410.47;6097329;23;20615;-82
2021/10/02 06:23:58;;;;;;;16.92;14.50;;;;;;;15.71;68.43;99400.09;6096932;23;20032;-82
2021/10/02 06:26:28;;;;;;;17.30;13.57;;;;;;;15.75;67.54;99405.00;6097437;23;20498;-82
2021/10/02 06:28:55;;;;;;;15.43;13.73;;;;;;;15.76;67.48;99408.50;6096933;23;20029;-82
2021/10/02 06:31:41;;;;;;;15.68;13.48;;;;;;;15.73;68.35;99406.97;6096978;23;20026;-82
2021/10/02 06:34:09;;;;;;;16.13;13.43;;;;;;;15.78;67.55;99411.88;6096792;23;20022;-82
2021/10/02 06:36:35;;;;;;;14.60;13.10;;;;;;;15.80;67.45;99403.78;6097555;23;20465;-82
2021/10/02 06:39:08;;;;;;;20.17;14.13;;;;;;;15.75;68.34;99402.34;6097054;23;20446;-82
2021/10/02 06:41:35;;;;;;;18.27;13.55;;;;;;;15.79;67.46;99402.09;6096719;23;20023;-82
2021/10/02 06:44:27;;;;;;;17.08;14.48;;;;;;;15.73;68.46;99406.09;6096410;23;20073;-82
2021/10/02 06:46:53;;;;;;;16.20;13.73;;;;;;;15.77;67.53;99408.38;6097258;23;20087;-82
2021/10/02 06:49:42;;;;;;;17.50;14.57;;;;;;;15.72;68.42;99402.63;6096868;23;20023;-82
2021/10/02 06:52:09;;;;;;;16.75;13.73;;;;;;;15.75;67.49;99402.34;6097393;23;20023;-82
2021/10/02 06:54:55;;;;;;;15.80;14.15;;;;;;;15.71;68.60;99414.22;6098377;23;20102;-82
2021/10/02 06:57:22;;;;;;;18.80;14.25;;;;;;;15.75;67.54;99415.63;6097089;23;20609;-82
2021/10/02 06:59:57;;;;;;;18.33;14.75;;;;;;;15.71;68.47;99414.22;6096602;23;20037;-82
2021/10/02 07:02:24;;;;;;;15.88;13.93;;;;;;;15.74;67.56;99413.94;6096926;23;20446;-82
2021/10/02 07:04:52;;;;;;;18.45;15.43;;;;;;;15.75;67.75;99410.31;6096827;23;20350;-82
2021/10/02 07:07:47;;;;;;;17.83;15.93;;;;;;;15.71;68.88;99414.22;6096997;23;20085;-82
2021/10/02 07:10:15;;;;;;;17.00;14.57;;;;;;;15.76;67.62;99411.16;6096425;23;20018;-82
2021/10/02 07:12:41;;;;;;;20.23;14.52;;;;;;;15.75;67.78;99412.97;6096906;23;20031;-82
2021/10/02 07:15:15;;;;;;;16.05;14.18;;;;;;;15.74;68.76;99407.81;6096737;23;20346;-82
2021/10/02 07:17:43;;;;;;;18.42;14.30;;;;;;;15.78;67.93;99409.25;6096785;23;20022;-82
2021/10/02 07:20:41;;;;;;;19.00;14.85;;;;;;;15.75;69.44;99409.50;6096783;23;20105;-82
2021/10/02 07:23:08;;;;;;;15.77;13.48;;;;;;;15.82;67.83;99399.19;6097689;23;20101;-82
2021/10/02 07:25:34;;;;;;;15.52;13.43;;;;;;;15.82;68.14;99399.19;6096217;23;20025;-82
2021/10/02 07:28:24;;;;;;;14.32;12.63;;;;;;;15.80;69.05;99401.13;6096226;23;20022;-82
2021/10/02 07:30:51;;;;;;;14.75;12.38;;;;;;;15.85;67.97;99405.06;6096706;23;20022;-83
2021/10/02 07:33:17;;;;;;;16.02;12.50;;;;;;;15.87;67.92;99403.16;6096667;23;20350;-83
2021/10/02 07:36:08;;;;;;;16.27;12.98;;;;;;;15.84;68.84;99407.84;6096390;23;20502;-83
2021/10/02 07:38:35;;;;;;;16.90;11.90;;;;;;;15.90;67.84;99407.34;6102942;23;20026;-82
2021/10/02 07:41:19;;;;;;;14.52;12.38;;;;;;;15.87;68.82;99408.44;6100683;23;20101;-83
2021/10/02 07:43:56;;;;;;;12.50;11.30;;;;;;;15.91;68.58;99411.69;6096962;23;20105;-83
2021/10/02 07:46:25;;;;;;;14.43;11.48;;;;;;;15.94;68.29;99408.81;6096602;23;20097;-82
2021/10/02 07:48:53;;;;;;;12.27;10.82;;;;;;;15.97;68.05;99416.50;6096674;23;20052;-83
2021/10/02 07:51:23;;;;;;;11.70;10.50;;;;;;;15.99;68.17;99411.03;6095915;23;20033;-82
2021/10/02 07:53:54;;;;;;;11.63;10.43;;;;;;;16.01;68.43;99404.63;6096423;23;20077;-83
2021/10/02 07:56:22;;;;;;;11.23;10.10;;;;;;;16.03;67.87;99401.84;6096082;23;20029;-82
2021/10/02 07:58:51;;;;;;;11.10;9.88;;;;;;;16.04;67.89;99390.28;6096213;23;20093;-83
2021/10/02 08:01:19;;;;;;;10.82;9.70;;;;;;;16.08;67.86;99396.16;6096387;23;20022;-83
2021/10/02 08:03:48;;;;;;;17.20;10.77;;;;;;;16.09;67.91;99392.53;6096064;23;20076;-82
2021/10/02 08:06:36;;;;;;;9.20;8.30;;;;;;;16.13;67.85;99396.59;6096105;23;20032;-82
2021/10/02 08:09:41;;;;;;;13.80;10.13;;;;;;;16.12;68.66;99411.66;5959210;24;20024;-82
2021/10/02 08:12:09;;;;;;;10.30;8.65;;;;;;;16.19;67.96;99401.38;5958234;24;20021;-82
2021/10/02 08:14:38;;;;;;;10.50;9.23;;;;;;;16.24;67.81;99409.78;5957775;24;20111;-83
2021/10/02 08:17:27;;;;;;;11.10;9.90;;;;;;;16.24;68.77;99409.78;5958105;24;20410;-82
2021/10/02 08:19:59;;;;;;;12.05;10.13;;;;;;;16.32;68.11;99397.63;5958114;24;20021;-82
2021/10/02 08:22:27;;;;;;;11.32;9.75;;;;;;;16.37;67.70;99393.63;5957839;24;20094;-82
2021/10/02 08:24:54;;;;;;;16.35;9.95;;;;;;;16.40;67.58;99395.16;5957774;24;22124;-82
2021/10/02 08:27:22;;;;;;;12.40;10.15;;;;;;;16.44;67.60;99382.47;6027569;23;20026;-82
2021/10/02 08:30:00;;;;;;;11.13;9.82;;;;;;;16.41;68.10;99391.56;6095933;23;20023;-82
2021/10/02 08:32:27;;;;;;;11.20;9.95;;;;;;;16.45;67.15;99395.59;6095919;23;20037;-83
2021/10/02 08:34:54;;;;;;;12.27;9.75;;;;;;;16.48;67.37;99389.19;6095985;23;20022;-82
2021/10/02 08:37:35;;;;;;;12.38;10.13;;;;;;;16.46;68.60;99404.41;6096210;23;20105;-82
2021/10/02 08:40:05;;;;;;;10.85;9.75;;;;;;;16.53;68.04;99393.09;6095945;23;20098;-82
2021/10/02 08:42:58;;;;;;;11.55;10.05;;;;;;;16.54;68.11;99392.16;6097311;23;20061;-82
2021/10/02 08:45:29;;;;;;;13.50;9.77;;;;;;;16.60;67.39;99393.41;6096185;23;20036;-82
2021/10/02 08:47:57;;;;;;;11.30;10.13;;;;;;;16.64;67.13;99391.34;6095993;23;20101;-82
2021/10/02 08:51:00;;;;;;;10.80;9.18;;;;;;;16.60;67.56;99376.63;6096186;23;20328;-82
2021/10/02 08:53:33;;;;;;;12.63;9.30;;;;;;;16.66;66.78;99376.06;6095852;23;20027;-82
2021/10/02 08:56:02;;;;;;;12.80;9.57;;;;;;;16.65;66.93;99383.22;6095520;23;20029;-82
2021/10/02 08:58:36;;;;;;;11.02;8.85;;;;;;;16.64;67.37;99378.03;6095811;23;20022;-82
2021/10/02 09:01:04;;;;;;;11.52;9.60;;;;;;;16.67;67.12;99372.44;6095713;23;20026;-82
2021/10/02 09:03:31;;;;;;;12.30;8.82;;;;;;;16.70;67.23;99371.34;6095847;23;20038;-82
2021/10/02 09:06:23;;;;;;;13.73;10.18;;;;;;;16.70;67.75;99379.31;6095592;23;20026;-82
2021/10/02 09:08:50;;;;;;;15.90;10.90;;;;;;;16.76;66.94;99390.25;6097854;23;20102;-82
2021/10/02 09:11:17;;;;;;;11.90;10.27;;;;;;;16.78;66.60;99390.09;6097660;23;20101;-82
2021/10/02 09:14:08;;;;;;;13.65;9.98;;;;;;;16.75;66.91;99390.38;6097406;23;20022;-82
2021/10/02 09:16:35;;;;;;;13.45;10.40;;;;;;;16.81;66.51;99392.47;6097835;23;20093;-83
2021/10/02 09:19:01;;;;;;;11.68;8.88;;;;;;;16.82;66.32;99393.31;6098131;23;20030;-82
2021/10/02 09:21:28;;;;;;;11.60;9.02;;;;;;;16.82;66.43;99388.00;6097785;23;20032;-82
2021/10/02 09:24:26;;;;;;;10.77;9.35;;;;;;;16.76;66.74;99382.28;6097525;23;20101;-83
2021/10/02 09:26:53;;;;;;;12.35;9.63;;;;;;;16.83;66.36;99374.59;6097525;23;20406;-83
2021/10/02 09:29:38;;;;;;;12.85;9.20;;;;;;;16.80;66.99;99367.72;6097499;23;20022;-82
2021/10/02 09:32:07;;;;;;;13.00;8.82;;;;;;;16.86;66.49;99363.66;6098053;23;20034;-82
2021/10/02 09:34:46;;;;;;;12.75;9.13;;;;;;;16.87;66.85;99367.16;6099089;23;20446;-83
2021/10/02 09:37:19;;;;;;;9.63;8.32;;;;;;;16.90;66.65;99356.25;6097942;23;20397;-82
2021/10/02 09:39:57;;;;;;;10.88;8.15;;;;;;;16.92;67.06;99351.63;6098668;23;20030;-82
2021/10/02 09:42:26;;;;;;;9.48;7.50;;;;;;;17.01;67.81;99337.50;6097409;23;20022;-83
2021/10/02 09:48:32;;;;;;;7.63;6.30;;;;;;;17.36;67.58;99337.09;6099068;23;20030;-81
2021/10/02 09:51:16;;;;;;;7.95;5.20;;;;;;;17.54;67.04;99338.03;6097606;23;20397;-82
2021/10/02 09:53:43;;;;;;;7.22;5.00;;;;;;;17.74;66.59;99331.84;6097392;23;20026;-82
2021/10/02 09:56:35;;;;;;;7.68;5.32;;;;;;;17.82;65.60;99327.47;6097744;23;20030;-82
2021/10/02 09:59:35;;;;;;;8.52;5.07;;;;;;;17.93;65.00;99329.13;6097147;23;20018;-83
2021/10/02 10:02:18;;;;;;;6.53;4.20;;;;;;;18.01;64.13;99328.38;6096977;23;20023;-81
2021/10/02 10:04:52;;;;;;;7.68;4.53;;;;;;;18.08;63.68;99321.53;6097898;23;20029;-81
2021/10/02 10:07:25;;;;;;;7.93;4.10;;;;;;;18.12;63.67;99319.38;6097076;23;20054;-80
2021/10/02 10:10:10;;;;;;;7.03;3.92;;;;;;;18.15;63.47;99320.91;6097520;23;20044;-81
2021/10/02 10:12:45;;;;;;;5.45;3.80;;;;;;;18.19;63.28;99325.81;5987047;23;20027;-81
2021/10/02 10:15:35;;;;;;;5.03;4.10;;;;;;;18.20;63.48;99334.63;5986730;23;20499;-81
2021/10/02 10:18:03;;;;;;;8.80;4.80;;;;;;;18.29;63.02;99327.59;5978799;23;20030;-81
2021/10/02 10:20:42;;;;;;;4.10;3.70;;;;;;;18.27;62.60;99319.75;5986905;23;20023;-81
2021/10/02 10:23:11;;;;;;;5.10;3.55;;;;;;;18.33;63.15;99316.50;5986269;23;20379;-81
2021/10/02 10:25:59;;;;;;;5.95;4.18;;;;;;;18.34;62.45;99304.84;5986807;23;20472;-81
2021/10/02 10:28:29;;;;;;;4.82;3.33;;;;;;;18.44;62.60;99307.47;5986849;23;20786;-81
2021/10/02 10:31:20;;;;;;;7.65;3.97;;;;;;;18.42;61.81;99313.91;6047183;23;20045;-81
2021/10/02 10:34:17;;;;;;;8.27;3.30;;;;;;;18.48;62.34;99307.97;6098542;23;20228;-81
2021/10/02 10:36:44;;;;;;;5.35;3.20;;;;;;;18.61;63.55;99307.59;6099141;23;20019;-83
2021/10/02 10:39:10;;;;;;;4.47;3.33;;;;;;;18.70;63.64;99311.19;6096876;23;20022;-83
2021/10/02 10:41:48;;;;;;;4.75;2.95;;;;;;;18.81;61.50;99300.31;6096865;23;20170;-83
2021/10/02 10:44:16;;;;;;;5.32;2.80;;;;;;;19.00;62.83;99301.16;6096489;23;20028;-84
2021/10/02 10:46:57;;;;;;;3.55;1.83;;;;;;;19.14;61.61;99302.47;6096670;23;20023;-83
2021/10/02 10:49:25;;;;;;;4.47;2.00;;;;;;;19.31;61.49;99302.56;6096895;23;20029;-83
2021/10/02 10:52:12;;;;;;;4.25;2.15;;;;;;;19.35;60.05;99299.44;6098527;23;20041;-83
2021/10/02 10:54:45;;;;;;;3.97;2.10;;;;;;;19.47;60.89;99296.53;6096821;23;20446;-83
2021/10/02 10:57:32;;;;;;;2.88;1.95;;;;;;;19.47;59.73;99289.34;6095180;23;20034;-83
2021/10/02 11:00:03;;;;;;;5.47;2.22;;;;;;;19.54;59.44;99289.53;6096900;23;20029;-83
2021/10/02 11:03:08;;;;;;;3.80;1.88;;;;;;;19.54;59.55;99284.22;6097064;23;20029;-82
2021/10/02 11:05:39;;;;;;;4.03;1.75;;;;;;;19.58;59.41;99282.06;6092552;23;20026;-83
2021/10/02 11:08:20;;;;;;;3.63;1.77;;;;;;;19.57;59.12;99275.88;6096561;23;20030;-83
2021/10/02 11:10:50;;;;;;;3.38;1.60;;;;;;;19.58;59.38;99280.22;6096522;23;20101;-83
2021/10/02 11:13:33;;;;;;;3.88;1.60;;;;;;;19.51;58.82;99279.22;6096455;23;20018;-83
2021/10/02 11:16:30;;;;;;;3.63;1.98;;;;;;;19.47;58.48;99281.34;6096598;23;20454;-82
2021/10/02 11:18:57;;;;;;;2.83;1.33;;;;;;;19.48;58.47;99279.50;6096422;23;20031;-83
2021/10/02 11:24:57;;;;;;;3.90;1.38;;;;;;;19.37;58.78;99265.41;5981335;24;20099;-83
2021/10/02 11:27:25;;;;;;;4.00;1.65;;;;;;;19.37;59.40;99264.59;6086457;23;20028;-83
2021/10/02 11:30:13;;;;;;;4.00;1.90;;;;;;;19.35;58.80;99272.75;6096422;23;20093;-83
2021/10/02 11:32:40;;;;;;;4.60;1.42;;;;;;;19.43;59.49;99255.94;6097357;23;20438;-83
2021/10/02 11:35:31;;;;;;;3.85;1.55;;;;;;;19.48;59.16;99260.81;6095997;23;20029;-83
2021/10/02 11:38:02;;;;;;;2.40;1.30;;;;;;;19.64;60.04;99260.94;6096725;23;20377;-85
2021/10/02 11:40:41;;;;;;;3.85;1.85;;;;;;;19.77;59.62;99248.94;6096641;23;20044;-83
2021/10/02 11:43:17;;;;;;;2.90;1.80;;;;;;;19.93;59.10;99232.97;6096647;23;20472;-84
2021/10/02 11:45:49;;;;;;;6.03;1.65;;;;;;;20.08;58.73;99235.09;6096377;23;20409;-84
2021/10/02 11:48:31;;;;;;;2.05;1.27;;;;;;;20.24;58.72;99228.09;6096465;23;20371;-84
2021/10/02 11:51:20;;;;;;;2.53;1.38;;;;;;;20.29;57.41;99226.63;6097676;23;20034;-82
2021/10/02 11:53:54;;;;;;;3.45;1.58;;;;;;;20.35;57.34;99227.78;6095986;23;20026;-83
2021/10/02 11:56:35;;;;;;;3.35;1.55;;;;;;;20.30;55.57;99216.78;6096521;23;20023;-83
2021/10/02 11:59:04;;;;;;;3.47;1.67;;;;;;;20.33;56.87;99219.09;6097481;23;20031;-83
2021/10/02 12:01:43;;;;;;;2.70;1.38;;;;;;;20.30;57.42;99208.75;6097042;23;20037;-83
2021/10/02 12:04:13;;;;;;;3.25;1.60;;;;;;;20.43;58.52;99206.44;6096065;23;20077;-83
2021/10/02 12:06:53;;;;;;;1.30;1.00;;;;;;;20.59;58.22;99207.41;6095888;23;20030;-83
2021/10/02 12:09:22;;;;;;;3.60;1.48;;;;;;;20.85;58.55;99203.75;6096084;23;20028;-83
2021/10/02 12:11:51;;;;;;;2.25;1.50;;;;;;;21.04;58.17;99202.59;6095884;23;20032;-83
2021/10/02 12:14:26;;;;;;;2.40;1.50;;;;;;;21.18;56.65;99194.88;6096041;23;20030;-83
2021/10/02 12:17:11;;;;;;;2.10;1.60;;;;;;;21.22;56.45;99190.84;6095988;23;20068;-83
2021/10/02 12:19:38;;;;;;;2.28;1.90;;;;;;;21.27;55.55;99190.34;6095979;23;20030;-83
2021/10/02 12:22:20;;;;;;;1.83;1.60;;;;;;;21.16;55.30;99189.69;6096137;23;20481;-83
2021/10/02 12:24:47;;;;;;;5.38;2.38;;;;;;;21.15;55.42;99176.50;6095832;23;20030;-83
2021/10/02 12:27:28;;;;;;;2.08;1.83;;;;;;;20.99;55.07;99167.47;6096100;23;20025;-83
2021/10/02 12:29:57;;;;;;;5.47;2.13;;;;;;;20.94;55.37;99161.81;6096157;23;20054;-83
2021/10/02 12:32:33;;;;;;;5.05;2.38;;;;;;;20.79;55.08;99148.25;6096818;23;20453;-83
2021/10/02 12:35:00;;;;;;;2.75;2.00;;;;;;;20.72;55.44;99144.59;6095631;23;20023;-83
2021/10/02 12:37:33;;;;;;;2.13;1.90;;;;;;;20.61;55.22;99143.09;6096186;23;20030;-81
2021/10/02 12:40:02;;;;;;;3.58;2.40;;;;;;;20.53;55.61;99150.09;6096411;23;20031;-81
2021/10/02 12:42:46;;;;;;;1.88;1.63;;;;;;;20.44;55.92;99127.91;6095960;23;20469;-81
2021/10/02 12:45:15;;;;;;;4.88;1.85;;;;;;;20.51;57.01;99124.53;6095782;23;20030;-81
2021/10/02 12:48:00;;;;;;;1.50;1.38;;;;;;;20.57;57.17;99121.22;6096071;23;20023;-81
2021/10/02 12:50:30;;;;;;;2.67;1.40;;;;;;;20.76;57.09;99117.34;6096317;23;20033;-81
2021/10/02 12:53:03;;;;;;;4.28;1.23;;;;;;;20.94;56.38;99110.97;6096414;23;20019;-81
2021/10/02 12:55:30;;;;;;;4.32;1.73;;;;;;;21.09;56.29;99109.25;6095511;23;20036;-81
2021/10/02 12:58:00;;;;;;;1.58;1.20;;;;;;;21.19;55.76;99106.38;6095830;23;20029;-81
2021/10/02 13:00:26;;;;;;;1.42;0.90;;;;;;;21.25;55.79;99096.81;6096455;23;20030;-81
2021/10/02 13:02:59;;;;;;;1.40;1.02;;;;;;;21.26;55.15;99093.13;6096085;23;20074;-79
2021/10/02 13:05:28;;;;;;;1.27;1.00;;;;;;;21.28;54.98;99085.78;6096016;23;20430;-79